sensor_id;sensor_type;location;lat;lon;timestamp;P1;durP1;ratioP1;P2;durP2;ratioP2
9547;SDS011;4812;51.992;8.648;2022-12-07T00:00:53;30.03;;;23.13;;
9547;SDS011;4812;51.992;8.648;2022-12-07T00:03:20;26.47;;;22.47;;
9547;SDS011;4812;51.992;8.648;2022-12-07T00:05:48;32.77;;;24.60;;
9547;SDS011;4812;51.992;8.648;2022-12-07T00:08:15;35.40;;;24.13;;
9547;SDS011;4812;51.992;8.648;2022-12-07T00:10:44;29.97;;;24.00;;
9547;SDS011;4812;51.992;8.648;2022-12-07T00:13:11;32.10;;;24.50;;
9547;SDS011;4812;51.992;8.648;2022-12-07T00:15:39;30.93;;;23.90;;
9547;SDS011;4812;51.992;8.648;2022-12-07T00:18:06;28.97;;;23.43;;
9547;SDS011;4812;51.992;8.648;2022-12-07T00:20:34;33.20;;;24.67;;
9547;SDS011;4812;51.992;8.648;2022-12-07T00:23:01;34.20;;;23.83;;
9547;SDS011;4812;51.992;8.648;2022-12-07T00:25:29;36.87;;;25.40;;
9547;SDS011;4812;51.992;8.648;2022-12-07T00:27:58;29.57;;;22.37;;
9547;SDS011;4812;51.992;8.648;2022-12-07T00:30:26;32.97;;;23.17;;
9547;SDS011;4812;51.992;8.648;2022-12-07T00:32:54;37.53;;;24.97;;
9547;SDS011;4812;51.992;8.648;2022-12-07T00:35:21;37.30;;;24.63;;
9547;SDS011;4812;51.992;8.648;2022-12-07T00:37:49;35.07;;;24.17;;
9547;SDS011;4812;51.992;8.648;2022-12-07T00:40:16;37.13;;;24.77;;
9547;SDS011;4812;51.992;8.648;2022-12-07T00:42:44;33.30;;;23.73;;
9547;SDS011;4812;51.992;8.648;2022-12-07T00:45:13;32.10;;;23.53;;
9547;SDS011;4812;51.992;8.648;2022-12-07T00:47:41;39.23;;;25.07;;
9547;SDS011;4812;51.992;8.648;2022-12-07T00:50:08;37.53;;;25.53;;
9547;SDS011;4812;51.992;8.648;2022-12-07T00:52:36;33.30;;;23.20;;
9547;SDS011;4812;51.992;8.648;2022-12-07T00:55:03;34.03;;;23.50;;
9547;SDS011;4812;51.992;8.648;2022-12-07T00:57:31;35.13;;;23.57;;
9547;SDS011;4812;51.992;8.648;2022-12-07T00:59:59;32.67;;;22.77;;
9547;SDS011;4812;51.992;8.648;2022-12-07T01:02:28;38.90;;;24.17;;
9547;SDS011;4812;51.992;8.648;2022-12-07T01:04:56;30.83;;;22.53;;
9547;SDS011;4812;51.992;8.648;2022-12-07T01:07:23;35.00;;;23.77;;
9547;SDS011;4812;51.992;8.648;2022-12-07T01:09:50;34.43;;;22.90;;
9547;SDS011;4812;51.992;8.648;2022-12-07T01:12:18;31.00;;;23.27;;
9547;SDS011;4812;51.992;8.648;2022-12-07T01:14:45;30.87;;;22.33;;
9547;SDS011;4812;51.992;8.648;2022-12-07T01:17:13;29.33;;;22.43;;
9547;SDS011;4812;51.992;8.648;2022-12-07T01:19:42;32.50;;;21.30;;
9547;SDS011;4812;51.992;8.648;2022-12-07T01:22:09;36.47;;;23.00;;
9547;SDS011;4812;51.992;8.648;2022-12-07T01:24:37;30.90;;;21.57;;
9547;SDS011;4812;51.992;8.648;2022-12-07T01:27:05;31.17;;;22.43;;
9547;SDS011;4812;51.992;8.648;2022-12-07T01:29:33;29.87;;;21.33;;
9547;SDS011;4812;51.992;8.648;2022-12-07T01:32:00;29.70;;;22.23;;
9547;SDS011;4812;51.992;8.648;2022-12-07T01:34:27;32.00;;;21.20;;
9547;SDS011;4812;51.992;8.648;2022-12-07T01:36:56;20.47;;;16.60;;
9547;SDS011;4812;51.992;8.648;2022-12-07T01:39:24;25.97;;;20.03;;
9547;SDS011;4812;51.992;8.648;2022-12-07T01:41:53;29.00;;;20.13;;
9547;SDS011;4812;51.992;8.648;2022-12-07T01:44:21;27.67;;;19.90;;
9547;SDS011;4812;51.992;8.648;2022-12-07T01:46:50;28.17;;;19.97;;
9547;SDS011;4812;51.992;8.648;2022-12-07T01:49:21;23.43;;;19.13;;
9547;SDS011;4812;51.992;8.648;2022-12-07T01:51:52;24.23;;;20.33;;
9547;SDS011;4812;51.992;8.648;2022-12-07T01:54:24;23.93;;;19.23;;
9547;SDS011;4812;51.992;8.648;2022-12-07T01:56:52;25.70;;;19.40;;
9547;SDS011;4812;51.992;8.648;2022-12-07T01:59:21;29.63;;;21.13;;
9547;SDS011;4812;51.992;8.648;2022-12-07T02:01:51;26.87;;;21.20;;
9547;SDS011;4812;51.992;8.648;2022-12-07T02:04:19;31.13;;;21.10;;
9547;SDS011;4812;51.992;8.648;2022-12-07T02:06:47;23.67;;;18.57;;
9547;SDS011;4812;51.992;8.648;2022-12-07T02:09:14;27.07;;;20.80;;
9547;SDS011;4812;51.992;8.648;2022-12-07T02:11:43;26.07;;;18.93;;
9547;SDS011;4812;51.992;8.648;2022-12-07T02:14:11;21.70;;;18.70;;
9547;SDS011;4812;51.992;8.648;2022-12-07T02:16:41;21.40;;;17.77;;
9547;SDS011;4812;51.992;8.648;2022-12-07T02:22:26;22.67;;;17.87;;
9547;SDS011;4812;51.992;8.648;2022-12-07T02:25:04;19.07;;;16.53;;
9547;SDS011;4812;51.992;8.648;2022-12-07T02:27:41;21.83;;;15.93;;
9547;SDS011;4812;51.992;8.648;2022-12-07T02:30:14;20.03;;;16.63;;
9547;SDS011;4812;51.992;8.648;2022-12-07T02:32:44;20.00;;;17.10;;
9547;SDS011;4812;51.992;8.648;2022-12-07T02:35:17;18.30;;;15.90;;
9547;SDS011;4812;51.992;8.648;2022-12-07T02:37:48;20.23;;;17.83;;
9547;SDS011;4812;51.992;8.648;2022-12-07T02:40:26;21.53;;;18.13;;
9547;SDS011;4812;51.992;8.648;2022-12-07T02:42:57;21.10;;;17.27;;
9547;SDS011;4812;51.992;8.648;2022-12-07T02:45:29;24.03;;;16.67;;
9547;SDS011;4812;51.992;8.648;2022-12-07T02:47:58;21.20;;;16.90;;
9547;SDS011;4812;51.992;8.648;2022-12-07T02:50:26;18.57;;;16.73;;
9547;SDS011;4812;51.992;8.648;2022-12-07T02:52:54;15.97;;;14.33;;
9547;SDS011;4812;51.992;8.648;2022-12-07T02:55:23;26.70;;;16.27;;
9547;SDS011;4812;51.992;8.648;2022-12-07T02:57:56;19.57;;;15.80;;
9547;SDS011;4812;51.992;8.648;2022-12-07T03:00:34;18.77;;;14.90;;
9547;SDS011;4812;51.992;8.648;2022-12-07T03:03:06;25.10;;;16.53;;
9547;SDS011;4812;51.992;8.648;2022-12-07T03:05:43;17.43;;;15.60;;
9547;SDS011;4812;51.992;8.648;2022-12-07T03:08:19;18.20;;;16.23;;
9547;SDS011;4812;51.992;8.648;2022-12-07T03:10:50;16.93;;;15.23;;
9547;SDS011;4812;51.992;8.648;2022-12-07T03:13:23;21.07;;;15.90;;
9547;SDS011;4812;51.992;8.648;2022-12-07T03:15:55;17.70;;;15.47;;
9547;SDS011;4812;51.992;8.648;2022-12-07T03:18:27;15.67;;;14.23;;
9547;SDS011;4812;51.992;8.648;2022-12-07T03:20:57;15.93;;;14.47;;
9547;SDS011;4812;51.992;8.648;2022-12-07T03:23:27;17.20;;;14.83;;
9547;SDS011;4812;51.992;8.648;2022-12-07T03:25:56;16.17;;;14.67;;
9547;SDS011;4812;51.992;8.648;2022-12-07T03:28:26;17.90;;;14.77;;
9547;SDS011;4812;51.992;8.648;2022-12-07T03:30:59;15.93;;;14.40;;
9547;SDS011;4812;51.992;8.648;2022-12-07T03:33:29;16.07;;;14.67;;
9547;SDS011;4812;51.992;8.648;2022-12-07T03:36:00;16.07;;;14.63;;
9547;SDS011;4812;51.992;8.648;2022-12-07T03:38:31;16.30;;;14.83;;
9547;SDS011;4812;51.992;8.648;2022-12-07T03:41:03;14.93;;;13.63;;
9547;SDS011;4812;51.992;8.648;2022-12-07T03:43:32;16.90;;;14.23;;
9547;SDS011;4812;51.992;8.648;2022-12-07T03:46:06;15.27;;;13.93;;
9547;SDS011;4812;51.992;8.648;2022-12-07T03:48:46;14.47;;;12.97;;
9547;SDS011;4812;51.992;8.648;2022-12-07T03:51:19;20.73;;;14.77;;
9547;SDS011;4812;51.992;8.648;2022-12-07T03:53:49;21.97;;;15.17;;
9547;SDS011;4812;51.992;8.648;2022-12-07T03:56:20;15.93;;;14.27;;
9547;SDS011;4812;51.992;8.648;2022-12-07T03:58:48;16.60;;;15.00;;
9547;SDS011;4812;51.992;8.648;2022-12-07T04:01:18;16.83;;;15.27;;
9547;SDS011;4812;51.992;8.648;2022-12-07T04:03:46;19.87;;;15.67;;
9547;SDS011;4812;51.992;8.648;2022-12-07T04:06:13;16.57;;;14.83;;
9547;SDS011;4812;51.992;8.648;2022-12-07T04:08:41;16.10;;;14.47;;
9547;SDS011;4812;51.992;8.648;2022-12-07T04:11:09;16.27;;;14.67;;
9547;SDS011;4812;51.992;8.648;2022-12-07T04:13:36;16.97;;;15.13;;
9547;SDS011;4812;51.992;8.648;2022-12-07T04:16:47;22.50;;;14.87;;
9547;SDS011;4812;51.992;8.648;2022-12-07T04:19:16;15.57;;;13.97;;
9547;SDS011;4812;51.992;8.648;2022-12-07T04:21:44;15.50;;;13.20;;
9547;SDS011;4812;51.992;8.648;2022-12-07T04:24:12;15.63;;;14.23;;
9547;SDS011;4812;51.992;8.648;2022-12-07T04:26:41;17.63;;;15.07;;
9547;SDS011;4812;51.992;8.648;2022-12-07T04:29:09;16.00;;;14.37;;
9547;SDS011;4812;51.992;8.648;2022-12-07T04:31:37;16.17;;;14.57;;
9547;SDS011;4812;51.992;8.648;2022-12-07T04:34:06;18.53;;;14.40;;
9547;SDS011;4812;51.992;8.648;2022-12-07T04:36:34;16.83;;;15.03;;
9547;SDS011;4812;51.992;8.648;2022-12-07T04:39:02;15.73;;;14.23;;
9547;SDS011;4812;51.992;8.648;2022-12-07T04:41:30;17.17;;;14.63;;
9547;SDS011;4812;51.992;8.648;2022-12-07T04:44:00;15.47;;;14.17;;
9547;SDS011;4812;51.992;8.648;2022-12-07T04:46:29;15.83;;;14.43;;
9547;SDS011;4812;51.992;8.648;2022-12-07T04:48:57;15.27;;;13.90;;
9547;SDS011;4812;51.992;8.648;2022-12-07T04:51:27;16.83;;;15.17;;
9547;SDS011;4812;51.992;8.648;2022-12-07T04:53:55;16.90;;;15.20;;
9547;SDS011;4812;51.992;8.648;2022-12-07T04:56:23;17.53;;;15.63;;
9547;SDS011;4812;51.992;8.648;2022-12-07T04:58:51;17.67;;;14.30;;
9547;SDS011;4812;51.992;8.648;2022-12-07T05:01:20;16.50;;;14.90;;
9547;SDS011;4812;51.992;8.648;2022-12-07T05:03:48;17.97;;;16.10;;
9547;SDS011;4812;51.992;8.648;2022-12-07T05:06:16;16.20;;;14.50;;
9547;SDS011;4812;51.992;8.648;2022-12-07T05:08:45;15.23;;;14.03;;
9547;SDS011;4812;51.992;8.648;2022-12-07T05:11:12;17.03;;;14.67;;
9547;SDS011;4812;51.992;8.648;2022-12-07T05:14:01;15.97;;;14.20;;
9547;SDS011;4812;51.992;8.648;2022-12-07T05:16:29;17.37;;;14.80;;
9547;SDS011;4812;51.992;8.648;2022-12-07T05:18:56;15.70;;;12.90;;
9547;SDS011;4812;51.992;8.648;2022-12-07T05:21:24;15.63;;;13.97;;
9547;SDS011;4812;51.992;8.648;2022-12-07T05:23:53;17.97;;;14.20;;
9547;SDS011;4812;51.992;8.648;2022-12-07T05:26:20;15.33;;;13.70;;
9547;SDS011;4812;51.992;8.648;2022-12-07T05:28:51;20.63;;;14.37;;
9547;SDS011;4812;51.992;8.648;2022-12-07T05:31:19;13.90;;;12.67;;
9547;SDS011;4812;51.992;8.648;2022-12-07T05:33:47;15.60;;;14.20;;
9547;SDS011;4812;51.992;8.648;2022-12-07T05:36:14;15.47;;;13.87;;
9547;SDS011;4812;51.992;8.648;2022-12-07T05:38:42;15.33;;;13.80;;
9547;SDS011;4812;51.992;8.648;2022-12-07T05:41:12;15.33;;;13.93;;
9547;SDS011;4812;51.992;8.648;2022-12-07T05:43:54;16.23;;;14.63;;
9547;SDS011;4812;51.992;8.648;2022-12-07T05:46:22;15.80;;;14.00;;
9547;SDS011;4812;51.992;8.648;2022-12-07T05:48:49;14.67;;;13.43;;
9547;SDS011;4812;51.992;8.648;2022-12-07T05:51:17;15.47;;;14.00;;
9547;SDS011;4812;51.992;8.648;2022-12-07T05:53:44;16.87;;;14.23;;
9547;SDS011;4812;51.992;8.648;2022-12-07T05:56:13;15.77;;;14.47;;
9547;SDS011;4812;51.992;8.648;2022-12-07T05:58:41;16.03;;;14.63;;
9547;SDS011;4812;51.992;8.648;2022-12-07T06:01:26;16.03;;;14.43;;
9547;SDS011;4812;51.992;8.648;2022-12-07T06:03:53;14.77;;;13.57;;
9547;SDS011;4812;51.992;8.648;2022-12-07T06:06:21;15.47;;;14.20;;
9547;SDS011;4812;51.992;8.648;2022-12-07T06:08:51;16.10;;;14.70;;
9547;SDS011;4812;51.992;8.648;2022-12-07T06:11:20;15.80;;;14.27;;
9547;SDS011;4812;51.992;8.648;2022-12-07T06:14:05;15.70;;;14.40;;
9547;SDS011;4812;51.992;8.648;2022-12-07T06:16:32;16.50;;;13.87;;
9547;SDS011;4812;51.992;8.648;2022-12-07T06:19:00;16.47;;;14.97;;
9547;SDS011;4812;51.992;8.648;2022-12-07T06:21:27;15.30;;;13.70;;
9547;SDS011;4812;51.992;8.648;2022-12-07T06:23:55;15.10;;;13.90;;
9547;SDS011;4812;51.992;8.648;2022-12-07T06:26:24;15.83;;;13.50;;
9547;SDS011;4812;51.992;8.648;2022-12-07T06:28:51;15.47;;;14.20;;
9547;SDS011;4812;51.992;8.648;2022-12-07T06:31:20;15.27;;;13.80;;
9547;SDS011;4812;51.992;8.648;2022-12-07T06:33:47;15.37;;;13.73;;
9547;SDS011;4812;51.992;8.648;2022-12-07T06:36:15;15.40;;;13.80;;
9547;SDS011;4812;51.992;8.648;2022-12-07T06:38:47;15.50;;;13.93;;
9547;SDS011;4812;51.992;8.648;2022-12-07T06:41:15;15.43;;;14.13;;
9547;SDS011;4812;51.992;8.648;2022-12-07T06:43:43;16.77;;;15.27;;
9547;SDS011;4812;51.992;8.648;2022-12-07T06:46:15;16.77;;;15.00;;
9547;SDS011;4812;51.992;8.648;2022-12-07T06:48:43;14.80;;;13.47;;
9547;SDS011;4812;51.992;8.648;2022-12-07T06:51:11;15.53;;;13.93;;
9547;SDS011;4812;51.992;8.648;2022-12-07T06:53:38;14.23;;;12.80;;
9547;SDS011;4812;51.992;8.648;2022-12-07T06:56:06;13.70;;;12.70;;
9547;SDS011;4812;51.992;8.648;2022-12-07T06:58:34;14.33;;;13.17;;
9547;SDS011;4812;51.992;8.648;2022-12-07T07:01:07;16.83;;;13.77;;
9547;SDS011;4812;51.992;8.648;2022-12-07T07:03:36;17.03;;;13.30;;
9547;SDS011;4812;51.992;8.648;2022-12-07T07:06:03;15.63;;;14.10;;
9547;SDS011;4812;51.992;8.648;2022-12-07T07:08:31;15.67;;;14.10;;
9547;SDS011;4812;51.992;8.648;2022-12-07T07:10:58;14.37;;;13.13;;
9547;SDS011;4812;51.992;8.648;2022-12-07T07:13:26;16.00;;;14.40;;
9547;SDS011;4812;51.992;8.648;2022-12-07T07:15:54;14.90;;;13.50;;
9547;SDS011;4812;51.992;8.648;2022-12-07T07:18:23;15.80;;;14.30;;
9547;SDS011;4812;51.992;8.648;2022-12-07T07:20:51;14.50;;;13.40;;
9547;SDS011;4812;51.992;8.648;2022-12-07T07:23:19;14.90;;;13.57;;
9547;SDS011;4812;51.992;8.648;2022-12-07T07:25:47;14.23;;;13.10;;
9547;SDS011;4812;51.992;8.648;2022-12-07T07:28:15;15.00;;;13.60;;
9547;SDS011;4812;51.992;8.648;2022-12-07T07:30:43;15.13;;;13.83;;
9547;SDS011;4812;51.992;8.648;2022-12-07T07:33:11;15.47;;;14.17;;
9547;SDS011;4812;51.992;8.648;2022-12-07T07:35:41;14.33;;;13.23;;
9547;SDS011;4812;51.992;8.648;2022-12-07T07:38:09;14.27;;;12.77;;
9547;SDS011;4812;51.992;8.648;2022-12-07T07:40:36;14.63;;;13.17;;
9547;SDS011;4812;51.992;8.648;2022-12-07T07:43:03;14.60;;;13.30;;
9547;SDS011;4812;51.992;8.648;2022-12-07T07:45:31;16.43;;;14.43;;
9547;SDS011;4812;51.992;8.648;2022-12-07T07:47:59;15.23;;;14.00;;
9547;SDS011;4812;51.992;8.648;2022-12-07T07:50:26;15.03;;;13.77;;
9547;SDS011;4812;51.992;8.648;2022-12-07T07:52:55;14.67;;;13.30;;
9547;SDS011;4812;51.992;8.648;2022-12-07T07:55:23;14.70;;;13.50;;
9547;SDS011;4812;51.992;8.648;2022-12-07T07:57:51;14.00;;;12.87;;
9547;SDS011;4812;51.992;8.648;2022-12-07T08:00:20;13.60;;;12.37;;
9547;SDS011;4812;51.992;8.648;2022-12-07T08:02:48;14.23;;;13.03;;
9547;SDS011;4812;51.992;8.648;2022-12-07T08:05:16;13.03;;;11.87;;
9547;SDS011;4812;51.992;8.648;2022-12-07T08:07:44;15.33;;;13.40;;
9547;SDS011;4812;51.992;8.648;2022-12-07T08:10:13;14.07;;;12.93;;
9547;SDS011;4812;51.992;8.648;2022-12-07T08:12:41;15.23;;;13.67;;
9547;SDS011;4812;51.992;8.648;2022-12-07T08:15:24;12.53;;;11.63;;
9547;SDS011;4812;51.992;8.648;2022-12-07T08:17:52;14.10;;;13.00;;
9547;SDS011;4812;51.992;8.648;2022-12-07T08:20:20;14.77;;;13.33;;
9547;SDS011;4812;51.992;8.648;2022-12-07T08:22:47;14.00;;;12.73;;
9547;SDS011;4812;51.992;8.648;2022-12-07T08:25:16;14.40;;;13.10;;
9547;SDS011;4812;51.992;8.648;2022-12-07T08:27:44;15.17;;;13.60;;
9547;SDS011;4812;51.992;8.648;2022-12-07T08:30:11;13.27;;;12.17;;
9547;SDS011;4812;51.992;8.648;2022-12-07T08:32:39;14.47;;;13.10;;
9547;SDS011;4812;51.992;8.648;2022-12-07T08:35:07;14.00;;;12.77;;
9547;SDS011;4812;51.992;8.648;2022-12-07T08:37:35;13.27;;;12.03;;
9547;SDS011;4812;51.992;8.648;2022-12-07T08:40:03;12.17;;;11.33;;
9547;SDS011;4812;51.992;8.648;2022-12-07T08:42:35;12.27;;;11.20;;
9547;SDS011;4812;51.992;8.648;2022-12-07T08:45:06;13.17;;;11.97;;
9547;SDS011;4812;51.992;8.648;2022-12-07T08:47:36;11.33;;;10.50;;
9547;SDS011;4812;51.992;8.648;2022-12-07T08:50:05;13.40;;;12.10;;
9547;SDS011;4812;51.992;8.648;2022-12-07T08:52:34;12.17;;;11.23;;
9547;SDS011;4812;51.992;8.648;2022-12-07T08:55:03;13.13;;;11.93;;
9547;SDS011;4812;51.992;8.648;2022-12-07T08:57:32;12.53;;;11.63;;
9547;SDS011;4812;51.992;8.648;2022-12-07T09:00:06;12.70;;;11.67;;
9547;SDS011;4812;51.992;8.648;2022-12-07T09:02:34;12.87;;;11.97;;
9547;SDS011;4812;51.992;8.648;2022-12-07T09:05:02;15.33;;;12.77;;
9547;SDS011;4812;51.992;8.648;2022-12-07T09:07:29;14.53;;;13.10;;
9547;SDS011;4812;51.992;8.648;2022-12-07T09:09:59;16.63;;;13.07;;
9547;SDS011;4812;51.992;8.648;2022-12-07T09:12:56;14.40;;;13.40;;
9547;SDS011;4812;51.992;8.648;2022-12-07T09:15:26;13.90;;;12.90;;
9547;SDS011;4812;51.992;8.648;2022-12-07T09:17:54;14.40;;;13.30;;
9547;SDS011;4812;51.992;8.648;2022-12-07T09:20:22;13.80;;;12.87;;
9547;SDS011;4812;51.992;8.648;2022-12-07T09:22:53;14.50;;;13.40;;
9547;SDS011;4812;51.992;8.648;2022-12-07T09:47:23;16.17;;;14.97;;
9547;SDS011;4812;51.992;8.648;2022-12-07T09:49:51;16.10;;;14.90;;
9547;SDS011;4812;51.992;8.648;2022-12-07T09:52:19;16.13;;;14.83;;
9547;SDS011;4812;51.992;8.648;2022-12-07T09:54:49;16.60;;;15.20;;
9547;SDS011;4812;51.992;8.648;2022-12-07T09:57:18;16.40;;;15.40;;
9547;SDS011;4812;51.992;8.648;2022-12-07T09:59:48;17.47;;;15.90;;
9547;SDS011;4812;51.992;8.648;2022-12-07T10:02:25;18.40;;;16.60;;
9547;SDS011;4812;51.992;8.648;2022-12-07T10:05:00;15.37;;;14.27;;
9547;SDS011;4812;51.992;8.648;2022-12-07T10:07:29;15.57;;;14.30;;
9547;SDS011;4812;51.992;8.648;2022-12-07T10:09:56;16.37;;;15.00;;
9547;SDS011;4812;51.992;8.648;2022-12-07T10:12:24;17.63;;;16.23;;
9547;SDS011;4812;51.992;8.648;2022-12-07T10:14:55;18.17;;;16.43;;
9547;SDS011;4812;51.992;8.648;2022-12-07T10:17:36;16.00;;;14.87;;
9547;SDS011;4812;51.992;8.648;2022-12-07T10:20:14;16.23;;;15.13;;
9547;SDS011;4812;51.992;8.648;2022-12-07T10:22:56;17.07;;;15.67;;
9547;SDS011;4812;51.992;8.648;2022-12-07T10:25:29;16.57;;;15.40;;
9547;SDS011;4812;51.992;8.648;2022-12-07T10:27:59;16.20;;;15.20;;
9547;SDS011;4812;51.992;8.648;2022-12-07T10:30:28;16.83;;;15.40;;
9547;SDS011;4812;51.992;8.648;2022-12-07T10:32:57;16.97;;;15.40;;
9547;SDS011;4812;51.992;8.648;2022-12-07T10:35:26;16.13;;;14.83;;
9547;SDS011;4812;51.992;8.648;2022-12-07T10:37:56;16.33;;;14.83;;
9547;SDS011;4812;51.992;8.648;2022-12-07T10:40:27;17.13;;;15.80;;
9547;SDS011;4812;51.992;8.648;2022-12-07T10:43:12;17.03;;;15.73;;
9547;SDS011;4812;51.992;8.648;2022-12-07T10:45:59;16.50;;;15.37;;
9547;SDS011;4812;51.992;8.648;2022-12-07T10:48:43;16.93;;;15.53;;
9547;SDS011;4812;51.992;8.648;2022-12-07T10:51:17;19.47;;;16.40;;
9547;SDS011;4812;51.992;8.648;2022-12-07T10:53:53;17.47;;;15.87;;
9547;SDS011;4812;51.992;8.648;2022-12-07T10:56:37;17.77;;;16.30;;
9547;SDS011;4812;51.992;8.648;2022-12-07T11:02:11;17.17;;;15.77;;
9547;SDS011;4812;51.992;8.648;2022-12-07T11:04:52;16.83;;;15.73;;
9547;SDS011;4812;51.992;8.648;2022-12-07T11:07:27;17.57;;;16.27;;
9547;SDS011;4812;51.992;8.648;2022-12-07T11:10:03;18.70;;;17.00;;
9547;SDS011;4812;51.992;8.648;2022-12-07T11:12:40;18.77;;;16.70;;
9547;SDS011;4812;51.992;8.648;2022-12-07T11:15:17;17.87;;;16.20;;
9547;SDS011;4812;51.992;8.648;2022-12-07T11:17:48;18.13;;;16.73;;
9547;SDS011;4812;51.992;8.648;2022-12-07T11:20:29;18.13;;;16.63;;
9547;SDS011;4812;51.992;8.648;2022-12-07T11:23:03;20.30;;;18.33;;
9547;SDS011;4812;51.992;8.648;2022-12-07T11:25:34;19.50;;;17.80;;
9547;SDS011;4812;51.992;8.648;2022-12-07T11:28:11;25.80;;;17.73;;
9547;SDS011;4812;51.992;8.648;2022-12-07T11:30:48;18.50;;;17.10;;
9547;SDS011;4812;51.992;8.648;2022-12-07T11:33:22;18.90;;;17.30;;
9547;SDS011;4812;51.992;8.648;2022-12-07T11:36:00;19.50;;;17.47;;
9547;SDS011;4812;51.992;8.648;2022-12-07T11:38:33;18.40;;;17.00;;
9547;SDS011;4812;51.992;8.648;2022-12-07T11:41:04;17.97;;;16.57;;
9547;SDS011;4812;51.992;8.648;2022-12-07T11:46:24;18.50;;;17.00;;
9547;SDS011;4812;51.992;8.648;2022-12-07T11:48:55;19.73;;;17.73;;
9547;SDS011;4812;51.992;8.648;2022-12-07T11:51:28;25.30;;;23.40;;
9547;SDS011;4812;51.992;8.648;2022-12-07T11:53:59;23.93;;;22.23;;
9547;SDS011;4812;51.992;8.648;2022-12-07T11:56:30;19.33;;;17.93;;
9547;SDS011;4812;51.992;8.648;2022-12-07T11:59:04;19.97;;;17.90;;
9547;SDS011;4812;51.992;8.648;2022-12-07T12:01:40;18.17;;;16.83;;
9547;SDS011;4812;51.992;8.648;2022-12-07T12:04:16;18.10;;;16.90;;
9547;SDS011;4812;51.992;8.648;2022-12-07T12:06:51;18.20;;;16.80;;
9547;SDS011;4812;51.992;8.648;2022-12-07T12:09:21;18.93;;;17.07;;
9547;SDS011;4812;51.992;8.648;2022-12-07T12:12:12;20.00;;;17.93;;
9547;SDS011;4812;51.992;8.648;2022-12-07T12:15:16;19.80;;;18.00;;
9547;SDS011;4812;51.992;8.648;2022-12-07T12:17:55;19.67;;;18.27;;
9547;SDS011;4812;51.992;8.648;2022-12-07T12:20:32;19.70;;;18.10;;
9547;SDS011;4812;51.992;8.648;2022-12-07T12:23:06;19.73;;;18.20;;
9547;SDS011;4812;51.992;8.648;2022-12-07T12:25:37;19.80;;;18.40;;
9547;SDS011;4812;51.992;8.648;2022-12-07T12:28:15;19.67;;;17.97;;
9547;SDS011;4812;51.992;8.648;2022-12-07T12:30:51;19.77;;;18.27;;
9547;SDS011;4812;51.992;8.648;2022-12-07T12:33:32;19.43;;;18.00;;
9547;SDS011;4812;51.992;8.648;2022-12-07T12:39:11;20.03;;;18.20;;
9547;SDS011;4812;51.992;8.648;2022-12-07T12:41:56;20.00;;;18.47;;
9547;SDS011;4812;51.992;8.648;2022-12-07T12:44:38;19.77;;;18.27;;
9547;SDS011;4812;51.992;8.648;2022-12-07T12:56:03;20.10;;;18.47;;
9547;SDS011;4812;51.992;8.648;2022-12-07T12:58:40;20.47;;;18.63;;
9547;SDS011;4812;51.992;8.648;2022-12-07T13:04:16;20.60;;;18.87;;
9547;SDS011;4812;51.992;8.648;2022-12-07T13:06:52;20.10;;;18.50;;
9547;SDS011;4812;51.992;8.648;2022-12-07T13:09:21;19.40;;;17.47;;
9547;SDS011;4812;51.992;8.648;2022-12-07T13:11:56;21.20;;;19.20;;
9547;SDS011;4812;51.992;8.648;2022-12-07T13:14:43;20.50;;;18.77;;
9547;SDS011;4812;51.992;8.648;2022-12-07T13:23:20;19.63;;;18.13;;
9547;SDS011;4812;51.992;8.648;2022-12-07T13:26:09;21.53;;;19.53;;
9547;SDS011;4812;51.992;8.648;2022-12-07T13:28:45;20.53;;;18.93;;
9547;SDS011;4812;51.992;8.648;2022-12-07T13:31:17;21.20;;;19.40;;
9547;SDS011;4812;51.992;8.648;2022-12-07T13:33:58;19.70;;;18.20;;
9547;SDS011;4812;51.992;8.648;2022-12-07T13:36:26;20.70;;;18.53;;
9547;SDS011;4812;51.992;8.648;2022-12-07T13:38:55;19.97;;;18.20;;
9547;SDS011;4812;51.992;8.648;2022-12-07T13:41:26;18.83;;;17.33;;
9547;SDS011;4812;51.992;8.648;2022-12-07T13:43:59;19.27;;;17.77;;
9547;SDS011;4812;51.992;8.648;2022-12-07T13:46:43;20.37;;;18.70;;
9547;SDS011;4812;51.992;8.648;2022-12-07T13:49:18;21.63;;;18.23;;
9547;SDS011;4812;51.992;8.648;2022-12-07T13:51:48;18.97;;;17.47;;
9547;SDS011;4812;51.992;8.648;2022-12-07T13:54:16;18.60;;;17.20;;
9547;SDS011;4812;51.992;8.648;2022-12-07T13:56:46;19.90;;;17.93;;
9547;SDS011;4812;51.992;8.648;2022-12-07T13:59:18;18.83;;;17.30;;
9547;SDS011;4812;51.992;8.648;2022-12-07T14:01:48;19.03;;;17.33;;
9547;SDS011;4812;51.992;8.648;2022-12-07T14:04:18;19.07;;;17.60;;
9547;SDS011;4812;51.992;8.648;2022-12-07T14:06:57;19.43;;;17.73;;
9547;SDS011;4812;51.992;8.648;2022-12-07T14:09:25;19.20;;;17.80;;
9547;SDS011;4812;51.992;8.648;2022-12-07T14:11:53;19.20;;;17.53;;
9547;SDS011;4812;51.992;8.648;2022-12-07T14:14:24;19.67;;;17.83;;
9547;SDS011;4812;51.992;8.648;2022-12-07T14:17:01;19.37;;;17.70;;
9547;SDS011;4812;51.992;8.648;2022-12-07T14:19:49;19.43;;;17.60;;
9547;SDS011;4812;51.992;8.648;2022-12-07T14:22:22;19.37;;;17.83;;
9547;SDS011;4812;51.992;8.648;2022-12-07T14:24:58;19.73;;;17.80;;
9547;SDS011;4812;51.992;8.648;2022-12-07T14:27:39;19.17;;;17.40;;
9547;SDS011;4812;51.992;8.648;2022-12-07T14:30:17;20.20;;;18.43;;
9547;SDS011;4812;51.992;8.648;2022-12-07T14:32:45;20.53;;;18.53;;
9547;SDS011;4812;51.992;8.648;2022-12-07T14:35:15;19.23;;;17.60;;
9547;SDS011;4812;51.992;8.648;2022-12-07T14:37:44;19.33;;;17.80;;
9547;SDS011;4812;51.992;8.648;2022-12-07T14:40:14;21.37;;;19.30;;
9547;SDS011;4812;51.992;8.648;2022-12-07T14:42:43;19.67;;;18.07;;
9547;SDS011;4812;51.992;8.648;2022-12-07T14:45:13;19.30;;;17.80;;
9547;SDS011;4812;51.992;8.648;2022-12-07T14:47:42;18.83;;;17.33;;
9547;SDS011;4812;51.992;8.648;2022-12-07T14:50:30;19.10;;;17.70;;
9547;SDS011;4812;51.992;8.648;2022-12-07T14:53:01;19.67;;;18.07;;
9547;SDS011;4812;51.992;8.648;2022-12-07T14:55:52;19.30;;;17.70;;
9547;SDS011;4812;51.992;8.648;2022-12-07T14:58:19;18.77;;;17.37;;
9547;SDS011;4812;51.992;8.648;2022-12-07T15:00:49;19.43;;;17.60;;
9547;SDS011;4812;51.992;8.648;2022-12-07T15:03:18;21.23;;;16.80;;
9547;SDS011;4812;51.992;8.648;2022-12-07T15:05:45;18.47;;;17.07;;
9547;SDS011;4812;51.992;8.648;2022-12-07T15:08:13;18.80;;;17.20;;
9547;SDS011;4812;51.992;8.648;2022-12-07T15:10:40;18.80;;;16.87;;
9547;SDS011;4812;51.992;8.648;2022-12-07T15:13:08;17.80;;;16.30;;
9547;SDS011;4812;51.992;8.648;2022-12-07T15:15:53;17.97;;;16.33;;
9547;SDS011;4812;51.992;8.648;2022-12-07T15:18:23;17.60;;;16.30;;
9547;SDS011;4812;51.992;8.648;2022-12-07T15:20:51;18.57;;;16.97;;
9547;SDS011;4812;51.992;8.648;2022-12-07T15:23:18;20.77;;;18.87;;
9547;SDS011;4812;51.992;8.648;2022-12-07T15:25:47;20.93;;;19.10;;
9547;SDS011;4812;51.992;8.648;2022-12-07T15:28:15;22.50;;;19.20;;
9547;SDS011;4812;51.992;8.648;2022-12-07T15:30:43;21.50;;;19.60;;
9547;SDS011;4812;51.992;8.648;2022-12-07T15:33:12;20.37;;;18.60;;
9547;SDS011;4812;51.992;8.648;2022-12-07T15:35:41;20.20;;;18.30;;
9547;SDS011;4812;51.992;8.648;2022-12-07T15:38:09;19.93;;;17.97;;
9547;SDS011;4812;51.992;8.648;2022-12-07T15:40:37;19.57;;;17.93;;
9547;SDS011;4812;51.992;8.648;2022-12-07T15:43:05;19.33;;;17.70;;
9547;SDS011;4812;51.992;8.648;2022-12-07T15:45:52;19.17;;;17.73;;
9547;SDS011;4812;51.992;8.648;2022-12-07T15:48:19;19.50;;;17.53;;
9547;SDS011;4812;51.992;8.648;2022-12-07T15:51:02;19.57;;;17.97;;
9547;SDS011;4812;51.992;8.648;2022-12-07T15:53:30;19.90;;;17.93;;
9547;SDS011;4812;51.992;8.648;2022-12-07T15:55:57;19.60;;;18.00;;
9547;SDS011;4812;51.992;8.648;2022-12-07T15:58:25;19.90;;;18.00;;
9547;SDS011;4812;51.992;8.648;2022-12-07T16:00:52;21.60;;;18.80;;
9547;SDS011;4812;51.992;8.648;2022-12-07T16:03:20;20.73;;;18.50;;